Airfield :







YOU CAN JOIN US ON...

 
LOGIN :

Register | Disclaimer

   EN    FR    IT 

 









Legend :    VFR   Marginal VFR   IFR   Intensive IFR   Very Intensive IFR
Visi :
Ceiling :
>= 8 km
>= 3000ft
5 to 8 km
1000 to 3000 ft
1500m to 5 km
500 to 1000 ft
800 to 1500m
200 to 500 ft
< 800m
< 200 ft
Symbols :   Thunderstorms  Fog  Heavy snow  Heavy precipitations  Wind > 20 kt






- Airport Elevation : 38 ft
- IATA code : YMH


CYMH - Mary's Harbour

CURRENT METAR :
  • 032000Z AUTO 36010G15KT 8SM OVC030 M01/M06 A3039 RMK SLP292

EXPIRED METARs :
  • 031900Z AUTO 02013G19KT 9SM OVC028 M01/M05 A3040 RMK SLP295
  • 031800Z AUTO 01013G21KT 9SM FEW024 OVC032 M01/M06 A3041 RMK SLP298

TAF TAF CYMH
Valid from the 03 at 20:00 until the 04 at 03:00 UTC


031938Z 0320/0403 02012G22KT P6SM OVC025
TEMPO 0320/0324 5SM -SN OVC020
FM040000 01012G22KT P6SM OVC015
TEMPO 0400/0403 5SM -SN OVC008
BECMG 0400/0402 34010G20KT RMK FCST BASED ON AUTO OBS. NXT FCST WILL BE ISSUED AT 040845Z



MET'MAP, your aeronautical weather chart ! - Copyright ORBIFLY December 2007 - Disclaimer

ORBIFLY MET'MAP TEAM :

Programming & Development : Alexandra Zaïnal
Concept & original design : Baudouin d'Aumeries
Assistance for programming : Marc-Olivier Méhu
Technical & hardware support : Manuel Goepfert

Contact : metmap@orbifly.com




SOURCES & CREDITS :

   NOAA